createdAt,value
2023-05-07T00:00:54.932Z,11.30
2023-05-07T00:03:37.124Z,10.80
2023-05-07T00:06:15.187Z,11.97
2023-05-07T00:08:54.956Z,14.97
2023-05-07T00:11:32.917Z,12.00
2023-05-07T00:14:07.482Z,11.07
2023-05-07T00:16:46.639Z,10.60
2023-05-07T00:19:22.314Z,11.03
2023-05-07T00:21:58.392Z,11.67
2023-05-07T00:24:37.674Z,11.00
2023-05-07T00:27:16.733Z,11.63
2023-05-07T00:29:51.518Z,10.17
2023-05-07T00:32:27.940Z,10.83
2023-05-07T00:35:10.495Z,10.37
2023-05-07T00:37:49.645Z,11.57
2023-05-07T00:40:33.966Z,23.87
2023-05-07T00:43:12.037Z,11.97
2023-05-07T00:45:46.546Z,10.90
2023-05-07T00:48:22.327Z,11.40
2023-05-07T00:51:08.340Z,10.33
2023-05-07T00:53:43.644Z,11.73
2023-05-07T00:56:24.891Z,11.53
2023-05-07T00:59:02.351Z,10.60
2023-05-07T01:01:39.081Z,9.95
2023-05-07T01:04:18.900Z,9.60
2023-05-07T01:06:55.846Z,10.07
2023-05-07T01:09:32.524Z,9.88
2023-05-07T01:12:11.146Z,9.68
2023-05-07T01:14:45.601Z,10.00
2023-05-07T01:17:20.032Z,11.32
2023-05-07T01:19:56.299Z,10.07
2023-05-07T01:22:39.443Z,10.82
2023-05-07T01:25:17.145Z,11.10
2023-05-07T01:28:00.133Z,10.48
2023-05-07T01:30:38.824Z,9.25
2023-05-07T01:33:19.692Z,10.15
2023-05-07T01:36:00.955Z,9.82
2023-05-07T01:38:43.611Z,9.00
2023-05-07T01:41:21.046Z,8.93
2023-05-07T01:43:55.523Z,9.50
2023-05-07T01:46:33.061Z,16.58
2023-05-07T01:49:10.000Z,10.80
2023-05-07T01:51:46.691Z,10.63
2023-05-07T01:54:24.714Z,11.25
2023-05-07T01:57:01.282Z,11.40
2023-05-07T01:59:46.575Z,9.80
2023-05-07T02:02:24.566Z,10.40
2023-05-07T02:05:03.099Z,9.85
2023-05-07T02:07:39.727Z,10.07
2023-05-07T02:10:22.102Z,10.82
2023-05-07T02:13:11.201Z,11.93
2023-05-07T02:18:47.375Z,11.75
2023-05-07T02:21:21.821Z,12.68
2023-05-07T02:23:57.648Z,13.18
2023-05-07T02:26:51.080Z,13.45
2023-05-07T02:29:32.296Z,14.30
2023-05-07T02:32:07.591Z,15.30
2023-05-07T02:34:42.522Z,13.68
2023-05-07T02:37:19.958Z,14.70
2023-05-07T02:39:54.654Z,15.80
2023-05-07T02:42:31.335Z,15.33
2023-05-07T02:45:12.549Z,17.40
2023-05-07T02:47:48.636Z,15.23
2023-05-07T02:50:26.009Z,17.20
2023-05-07T02:53:04.962Z,17.73
2023-05-07T02:55:43.397Z,19.53
2023-05-07T02:58:33.580Z,19.27
2023-05-07T03:01:10.430Z,20.37
2023-05-07T03:04:07.549Z,21.40
2023-05-07T03:06:45.097Z,20.13
2023-05-07T03:09:22.293Z,21.83
2023-05-07T03:12:10.817Z,23.17
2023-05-07T03:14:52.110Z,23.40
2023-05-07T03:17:26.683Z,21.90
2023-05-07T03:20:01.190Z,22.43
2023-05-07T03:22:37.466Z,22.17
2023-05-07T03:25:21.528Z,23.43
2023-05-07T03:27:59.836Z,24.30
2023-05-07T03:30:49.507Z,23.73
2023-05-07T03:33:30.676Z,25.17
2023-05-07T03:36:05.904Z,23.70
2023-05-07T03:38:39.773Z,23.30
2023-05-07T03:41:22.679Z,24.13
2023-05-07T03:44:01.525Z,23.77
2023-05-07T03:47:06.815Z,23.97
2023-05-07T03:49:42.159Z,21.30
2023-05-07T03:52:16.568Z,21.60
2023-05-07T03:54:53.608Z,21.53
2023-05-07T03:57:28.269Z,22.47
2023-05-07T04:00:09.952Z,19.70
2023-05-07T04:02:57.828Z,17.60
2023-05-07T04:05:34.150Z,21.93
2023-05-07T04:08:16.392Z,20.33
2023-05-07T04:11:01.426Z,20.17
2023-05-07T04:13:39.050Z,18.93
2023-05-07T04:16:19.625Z,13.53
2023-05-07T04:18:55.822Z,15.33
2023-05-07T04:21:32.329Z,14.03
2023-05-07T04:24:09.800Z,14.63
2023-05-07T04:26:45.533Z,15.10
2023-05-07T04:29:22.062Z,14.77
2023-05-07T04:31:58.013Z,14.83
2023-05-07T04:34:35.911Z,15.50
2023-05-07T04:37:18.235Z,15.00
2023-05-07T04:39:53.062Z,16.73
2023-05-07T04:42:31.152Z,16.10
2023-05-07T04:45:14.308Z,17.43
2023-05-07T04:47:56.230Z,17.97
2023-05-07T04:50:33.066Z,18.17
2023-05-07T04:53:15.187Z,19.17
2023-05-07T04:55:50.862Z,19.40
2023-05-07T04:58:27.993Z,19.37
2023-05-07T05:01:02.140Z,20.13
2023-05-07T05:03:38.989Z,20.67
2023-05-07T05:06:18.908Z,20.83
2023-05-07T05:08:54.183Z,19.73
2023-05-07T05:11:33.447Z,20.57
2023-05-07T05:14:14.900Z,20.93
2023-05-07T05:16:51.162Z,20.17
2023-05-07T05:19:27.121Z,19.93
2023-05-07T05:22:08.692Z,19.40
2023-05-07T05:24:43.431Z,18.13
2023-05-07T05:27:18.611Z,19.00
2023-05-07T05:29:52.576Z,20.33
2023-05-07T05:32:28.830Z,20.97
2023-05-07T05:35:04.478Z,20.83
2023-05-07T05:37:43.368Z,18.97
2023-05-07T05:40:18.772Z,18.77
2023-05-07T05:42:53.614Z,17.60
2023-05-07T05:45:29.418Z,18.10
2023-05-07T05:48:06.953Z,19.13
2023-05-07T05:50:48.765Z,20.00
2023-05-07T05:53:32.010Z,19.93
2023-05-07T05:56:07.792Z,21.40
2023-05-07T05:58:42.548Z,20.90
2023-05-07T06:01:21.976Z,18.23
2023-05-07T06:03:59.583Z,18.53
2023-05-07T06:06:44.321Z,17.53
2023-05-07T06:09:22.895Z,18.07
2023-05-07T06:12:04.124Z,16.73
2023-05-07T06:14:41.110Z,17.30
2023-05-07T06:17:21.783Z,17.60
2023-05-07T06:20:01.432Z,17.10
2023-05-07T06:22:38.289Z,17.23
2023-05-07T06:25:16.754Z,15.63
2023-05-07T06:27:55.634Z,15.67
2023-05-07T06:30:39.329Z,14.10
2023-05-07T06:33:17.619Z,14.77
2023-05-07T06:35:55.775Z,15.00
2023-05-07T06:38:36.976Z,12.37
2023-05-07T06:41:17.376Z,12.43
2023-05-07T06:43:54.090Z,13.43
2023-05-07T06:46:39.687Z,12.17
2023-05-07T06:49:17.258Z,12.43
2023-05-07T06:51:57.294Z,11.33
2023-05-07T06:54:31.561Z,12.20
2023-05-07T06:57:08.073Z,13.23
2023-05-07T06:59:45.143Z,12.07
2023-05-07T07:02:18.849Z,11.50
2023-05-07T07:05:05.931Z,12.37
2023-05-07T07:07:43.422Z,11.27
2023-05-07T07:10:18.896Z,13.17
2023-05-07T07:12:56.811Z,14.47
2023-05-07T07:15:32.126Z,13.50
2023-05-07T07:18:06.680Z,13.00
2023-05-07T07:20:45.537Z,13.70
2023-05-07T07:23:22.621Z,12.97
2023-05-07T07:25:58.724Z,12.63
2023-05-07T07:28:45.165Z,12.37
2023-05-07T07:31:25.432Z,11.00
2023-05-07T07:36:52.377Z,10.10
2023-05-07T07:39:30.906Z,9.73
2023-05-07T07:42:07.805Z,10.40
2023-05-07T07:44:45.806Z,11.03
2023-05-07T07:47:27.486Z,9.33
2023-05-07T07:50:02.089Z,11.10
2023-05-07T07:52:40.014Z,9.47
2023-05-07T07:55:20.155Z,9.13
2023-05-07T07:57:54.055Z,9.73
2023-05-07T08:00:32.580Z,9.60
2023-05-07T08:03:12.256Z,9.17
2023-05-07T08:05:55.057Z,9.57
2023-05-07T08:08:30.046Z,10.47
2023-05-07T08:11:05.987Z,10.27
2023-05-07T08:13:48.511Z,10.33
2023-05-07T08:16:31.142Z,10.20
2023-05-07T08:19:06.665Z,10.30
2023-05-07T08:21:45.313Z,9.80
2023-05-07T08:24:21.879Z,11.47
2023-05-07T08:26:57.451Z,10.90
2023-05-07T08:29:31.946Z,10.83
2023-05-07T08:32:49.462Z,12.03
2023-05-07T08:35:24.143Z,11.77
2023-05-07T08:38:00.595Z,10.70
2023-05-07T08:43:37.397Z,12.97
2023-05-07T08:46:17.838Z,13.20
2023-05-07T08:49:01.055Z,12.47
2023-05-07T08:51:37.366Z,12.17
2023-05-07T08:54:13.581Z,11.43
2023-05-07T08:56:48.711Z,10.23
2023-05-07T08:59:26.659Z,12.10
2023-05-07T09:02:04.596Z,12.50
2023-05-07T09:04:41.718Z,10.83
2023-05-07T09:07:19.869Z,11.90
2023-05-07T09:09:55.149Z,11.40
2023-05-07T09:12:29.227Z,11.63
2023-05-07T09:15:05.476Z,12.77
2023-05-07T09:17:40.444Z,12.77
2023-05-07T09:20:30.701Z,13.77
2023-05-07T09:23:05.783Z,13.20
2023-05-07T09:25:43.166Z,11.83
2023-05-07T09:28:25.228Z,11.83
2023-05-07T09:31:02.613Z,13.93
2023-05-07T09:33:37.421Z,12.80
2023-05-07T09:36:16.645Z,12.33
2023-05-07T09:38:55.854Z,12.17
2023-05-07T09:41:36.063Z,11.97
2023-05-07T09:44:28.410Z,11.57
2023-05-07T09:47:04.314Z,11.90
2023-05-07T09:49:46.950Z,12.27
2023-05-07T09:52:29.290Z,12.17
2023-05-07T09:55:05.404Z,11.67
2023-05-07T09:57:44.229Z,14.13
2023-05-07T10:00:19.169Z,12.53
2023-05-07T10:02:58.224Z,12.27
2023-05-07T10:05:41.030Z,13.17
2023-05-07T10:08:20.263Z,12.10
2023-05-07T10:10:55.846Z,11.60
2023-05-07T10:13:32.484Z,11.57
2023-05-07T10:16:08.220Z,10.87
2023-05-07T10:18:51.007Z,9.47
2023-05-07T10:21:38.180Z,10.33
2023-05-07T10:24:20.011Z,9.77
2023-05-07T10:27:14.638Z,9.47
2023-05-07T10:30:06.107Z,9.67
2023-05-07T10:32:49.299Z,10.27
2023-05-07T10:35:39.335Z,10.00
2023-05-07T10:38:15.912Z,10.33
2023-05-07T10:40:54.192Z,11.00
2023-05-07T10:43:42.635Z,10.80
2023-05-07T10:49:24.741Z,10.90
2023-05-07T11:04:38.396Z,11.13
2023-05-07T11:07:51.178Z,11.50
2023-05-07T11:10:25.394Z,11.20
2023-05-07T11:13:08.720Z,11.40
2023-05-07T11:16:03.466Z,11.80
2023-05-07T11:18:56.004Z,10.70
2023-05-07T11:21:42.955Z,12.40
2023-05-07T11:24:43.270Z,11.60
2023-05-07T11:27:31.255Z,10.90
2023-05-07T11:30:07.097Z,10.07
2023-05-07T11:32:43.004Z,8.10
2023-05-07T11:35:35.673Z,8.00
2023-05-07T11:38:17.568Z,6.90
2023-05-07T11:41:17.425Z,6.80
2023-05-07T11:47:10.369Z,7.47
2023-05-07T11:49:44.887Z,6.47
2023-05-07T11:52:22.304Z,5.73
2023-05-07T11:55:02.723Z,5.67
2023-05-07T11:57:42.670Z,6.30
2023-05-07T12:00:25.241Z,5.20
2023-05-07T12:03:05.850Z,6.27
2023-05-07T12:05:44.034Z,5.90
2023-05-07T12:08:35.606Z,6.20
2023-05-07T12:11:23.713Z,5.90
2023-05-07T12:14:10.834Z,6.40
2023-05-07T12:16:49.371Z,6.43
2023-05-07T12:19:23.392Z,6.60
2023-05-07T12:22:00.697Z,6.87
2023-05-07T12:24:53.157Z,5.90
2023-05-07T12:27:35.189Z,6.67
2023-05-07T12:30:25.133Z,6.30
2023-05-07T12:33:02.872Z,6.50
2023-05-07T12:35:43.737Z,6.33
2023-05-07T12:38:24.316Z,6.27
2023-05-07T12:41:04.359Z,6.20
2023-05-07T12:43:46.238Z,6.13
2023-05-07T12:46:26.626Z,5.63
2023-05-07T12:49:00.879Z,5.70
2023-05-07T12:51:42.440Z,5.80
2023-05-07T12:54:16.920Z,5.77
2023-05-07T12:56:55.023Z,5.47
2023-05-07T12:59:42.717Z,5.30
2023-05-07T13:02:17.433Z,5.70
2023-05-07T13:04:56.467Z,5.60
2023-05-07T13:07:38.520Z,5.50
2023-05-07T13:10:19.650Z,6.37
2023-05-07T13:13:02.901Z,5.97
2023-05-07T13:15:46.809Z,5.50
2023-05-07T13:18:25.331Z,6.07
2023-05-07T13:21:07.124Z,6.17
2023-05-07T13:23:42.243Z,6.30
2023-05-07T13:26:26.605Z,6.77
2023-05-07T13:29:04.434Z,6.60
2023-05-07T13:34:54.904Z,6.87
2023-05-07T13:37:32.922Z,7.73
2023-05-07T13:40:19.038Z,7.80
2023-05-07T13:42:58.437Z,7.50
2023-05-07T13:45:37.959Z,7.87
2023-05-07T13:48:27.833Z,7.30
2023-05-07T13:51:04.457Z,7.77
2023-05-07T13:53:43.226Z,7.57
2023-05-07T13:56:24.069Z,7.60
2023-05-07T13:59:01.758Z,7.50
2023-05-07T14:01:39.732Z,7.63
2023-05-07T14:04:17.159Z,8.20
2023-05-07T14:06:53.129Z,8.23
2023-05-07T14:09:38.448Z,8.37
2023-05-07T14:12:12.807Z,9.00
2023-05-07T14:14:57.494Z,8.70
2023-05-07T14:17:39.250Z,9.07
2023-05-07T14:20:22.257Z,8.67
2023-05-07T14:23:03.640Z,8.70
2023-05-07T14:25:41.378Z,8.77
2023-05-07T14:28:20.987Z,9.17
2023-05-07T14:31:01.275Z,9.03
2023-05-07T14:33:35.164Z,9.20
2023-05-07T14:36:18.082Z,8.90
2023-05-07T14:38:55.400Z,8.60
2023-05-07T14:41:33.193Z,9.07
2023-05-07T14:44:11.123Z,8.43
2023-05-07T14:46:54.921Z,9.30
2023-05-07T14:49:36.621Z,8.97
2023-05-07T14:52:17.407Z,9.43
2023-05-07T14:54:54.390Z,9.10
2023-05-07T14:57:32.898Z,9.60
2023-05-07T15:00:15.213Z,9.17
2023-05-07T15:05:47.555Z,9.97
2023-05-07T15:08:23.254Z,9.90
2023-05-07T15:11:02.448Z,10.40
2023-05-07T15:13:42.132Z,9.37
2023-05-07T15:16:22.028Z,10.00
2023-05-07T15:18:59.279Z,10.77
2023-05-07T15:21:36.972Z,9.93
2023-05-07T15:24:16.187Z,10.57
2023-05-07T15:26:51.758Z,11.47
2023-05-07T15:29:27.289Z,11.53
2023-05-07T15:32:08.950Z,11.77
2023-05-07T15:34:55.618Z,11.73
2023-05-07T15:37:49.444Z,11.80
2023-05-07T15:40:24.958Z,12.43
2023-05-07T15:43:02.558Z,11.63
2023-05-07T15:45:42.573Z,11.43
2023-05-07T15:48:20.668Z,10.37
2023-05-07T15:50:56.009Z,11.27
2023-05-07T15:53:32.494Z,11.57
2023-05-07T15:56:13.940Z,11.00
2023-05-07T15:58:49.819Z,9.93
2023-05-07T16:01:26.170Z,11.00
2023-05-07T16:04:03.263Z,10.10
2023-05-07T16:06:37.750Z,11.70
2023-05-07T16:09:13.875Z,10.60
2023-05-07T16:11:55.387Z,10.50
2023-05-07T16:14:30.840Z,9.27
2023-05-07T16:17:07.389Z,9.83
2023-05-07T16:19:40.471Z,9.30
2023-05-07T16:22:17.455Z,8.57
2023-05-07T16:24:59.759Z,7.57
2023-05-07T16:27:40.494Z,7.93
2023-05-07T16:30:32.858Z,6.83
2023-05-07T16:33:10.566Z,7.20
2023-05-07T16:35:49.679Z,6.70
2023-05-07T16:38:28.726Z,6.40
2023-05-07T16:41:05.754Z,6.60
2023-05-07T16:43:44.252Z,6.53
2023-05-07T16:46:20.530Z,6.43
2023-05-07T16:48:57.781Z,5.97
2023-05-07T16:51:31.800Z,6.27
2023-05-07T16:54:06.557Z,6.37
2023-05-07T16:56:44.026Z,5.47
2023-05-07T16:59:24.611Z,6.50
2023-05-07T17:01:59.522Z,5.90
2023-05-07T17:04:36.111Z,6.00
2023-05-07T17:07:12.897Z,5.80
2023-05-07T17:09:51.579Z,5.90
2023-05-07T17:12:31.387Z,6.13
2023-05-07T17:15:14.712Z,5.83
2023-05-07T17:17:54.415Z,6.33
2023-05-07T17:20:30.479Z,6.23
2023-05-07T17:23:06.744Z,6.10
2023-05-07T17:25:43.529Z,6.30
2023-05-07T17:28:19.284Z,6.47
2023-05-07T17:30:58.625Z,7.67
2023-05-07T17:33:33.364Z,7.00
2023-05-07T17:36:10.127Z,6.43
2023-05-07T17:38:52.504Z,6.93
2023-05-07T17:41:29.516Z,6.60
2023-05-07T17:44:03.488Z,7.57
2023-05-07T17:46:45.208Z,7.37
2023-05-07T17:49:25.025Z,7.73
2023-05-07T17:52:01.428Z,7.90
2023-05-07T17:54:41.262Z,8.00
2023-05-07T17:57:19.117Z,7.93
2023-05-07T17:59:53.666Z,8.70
2023-05-07T18:02:34.507Z,7.80
2023-05-07T18:05:16.546Z,8.40
2023-05-07T18:07:52.098Z,7.53
2023-05-07T18:10:31.175Z,7.47
2023-05-07T18:13:07.777Z,7.00
2023-05-07T18:15:41.855Z,6.97
2023-05-07T18:18:23.014Z,6.23
2023-05-07T18:20:59.608Z,6.43
2023-05-07T18:23:38.482Z,6.37
2023-05-07T18:26:16.127Z,6.43
2023-05-07T18:28:49.953Z,5.87
2023-05-07T18:31:28.806Z,5.90
2023-05-07T18:34:07.769Z,5.70
2023-05-07T18:36:41.926Z,6.60
2023-05-07T18:39:21.456Z,5.80
2023-05-07T18:42:00.204Z,5.83
2023-05-07T18:44:43.999Z,5.10
2023-05-07T18:47:17.632Z,5.60
2023-05-07T18:49:53.931Z,5.57
2023-05-07T18:52:29.725Z,5.70
2023-05-07T18:55:07.976Z,5.90
2023-05-07T18:57:45.344Z,5.70
2023-05-07T19:00:23.188Z,5.70
2023-05-07T19:02:58.666Z,5.30
2023-05-07T19:05:37.876Z,6.30
2023-05-07T19:08:11.483Z,5.93
2023-05-07T19:10:47.809Z,5.67
2023-05-07T19:13:21.358Z,5.03
2023-05-07T19:15:58.156Z,6.20
2023-05-07T19:18:34.991Z,6.17
2023-05-07T19:21:11.260Z,5.67
2023-05-07T19:23:46.424Z,6.50
2023-05-07T19:26:22.308Z,6.17
2023-05-07T19:29:07.171Z,5.80
2023-05-07T19:31:50.338Z,6.67
2023-05-07T19:34:26.348Z,6.00
2023-05-07T19:37:04.483Z,6.17
2023-05-07T19:39:42.084Z,6.30
2023-05-07T19:45:09.131Z,6.37
2023-05-07T19:47:44.242Z,6.07
2023-05-07T19:50:21.189Z,6.43
2023-05-07T19:52:59.906Z,6.77
2023-05-07T19:55:34.287Z,6.87
2023-05-07T19:58:09.733Z,6.60
2023-05-07T20:00:43.782Z,7.00
2023-05-07T20:03:20.925Z,6.47
2023-05-07T20:05:56.690Z,6.97
2023-05-07T20:08:39.879Z,6.30
2023-05-07T20:11:14.658Z,6.80
2023-05-07T20:13:50.962Z,6.80
2023-05-07T20:16:25.066Z,6.70
2023-05-07T20:19:02.857Z,7.30
2023-05-07T20:21:42.100Z,8.07
2023-05-07T20:24:22.151Z,7.47
2023-05-07T20:26:56.606Z,7.93
2023-05-07T20:29:33.555Z,7.97
2023-05-07T20:32:08.925Z,8.17
2023-05-07T20:34:46.542Z,7.53
2023-05-07T20:37:24.685Z,7.60
2023-05-07T20:40:02.686Z,7.87
2023-05-07T20:42:38.610Z,7.40
2023-05-07T20:45:14.952Z,8.90
2023-05-07T20:47:50.744Z,8.50
2023-05-07T20:50:27.531Z,8.50
2023-05-07T20:53:05.056Z,8.03
2023-05-07T20:55:42.565Z,8.67
2023-05-07T20:58:19.691Z,9.13
2023-05-07T21:00:57.960Z,9.40
2023-05-07T21:03:31.272Z,7.90
2023-05-07T21:06:05.515Z,9.13
2023-05-07T21:08:41.676Z,8.97
2023-05-07T21:11:19.036Z,8.77
2023-05-07T21:13:53.714Z,8.77
2023-05-07T21:16:28.338Z,9.17
2023-05-07T21:19:04.104Z,8.40
2023-05-07T21:21:38.436Z,9.23
2023-05-07T21:24:13.620Z,9.23
2023-05-07T21:26:54.348Z,9.27
2023-05-07T21:29:29.034Z,9.20
2023-05-07T21:32:02.090Z,10.00
2023-05-07T21:34:39.361Z,9.77
2023-05-07T21:37:16.834Z,10.27
2023-05-07T21:39:54.574Z,10.50
2023-05-07T21:42:36.477Z,10.77
2023-05-07T21:45:15.769Z,11.57
2023-05-07T21:47:49.471Z,11.50
2023-05-07T21:50:29.253Z,11.70
2023-05-07T21:53:03.967Z,12.87
2023-05-07T21:55:40.685Z,12.73
2023-05-07T21:58:23.946Z,13.37
2023-05-07T22:01:00.717Z,14.87
2023-05-07T22:03:37.566Z,14.70
2023-05-07T22:06:15.198Z,14.53
2023-05-07T22:08:52.837Z,14.20
2023-05-07T22:11:27.564Z,13.03
2023-05-07T22:14:07.475Z,14.33
2023-05-07T22:16:43.976Z,14.67
2023-05-07T22:19:20.366Z,13.47
2023-05-07T22:21:55.409Z,15.10
2023-05-07T22:24:41.848Z,14.13
2023-05-07T22:30:11.915Z,15.23
2023-05-07T22:32:47.533Z,13.80
2023-05-07T22:35:23.069Z,13.77
2023-05-07T22:38:01.167Z,13.27
2023-05-07T22:40:39.412Z,14.43
2023-05-07T22:43:14.992Z,13.57
2023-05-07T22:45:51.951Z,12.63
2023-05-07T22:48:28.959Z,11.77
2023-05-07T22:51:05.563Z,12.13
2023-05-07T22:53:39.462Z,12.13
2023-05-07T22:56:19.213Z,11.97
2023-05-07T22:58:53.925Z,11.30
2023-05-07T23:01:32.389Z,10.63
2023-05-07T23:04:09.852Z,10.23
2023-05-07T23:06:45.397Z,9.33
2023-05-07T23:09:24.984Z,9.93
2023-05-07T23:11:58.373Z,9.57
2023-05-07T23:14:40.054Z,10.10
2023-05-07T23:17:19.782Z,9.43
2023-05-07T23:19:55.674Z,9.27
2023-05-07T23:22:30.184Z,10.23
2023-05-07T23:25:11.339Z,9.43
2023-05-07T23:27:49.029Z,9.00
2023-05-07T23:30:23.839Z,8.70
2023-05-07T23:33:00.507Z,8.80
2023-05-07T23:35:37.971Z,7.90
2023-05-07T23:38:15.015Z,8.67
2023-05-07T23:40:55.162Z,7.90
2023-05-07T23:43:29.861Z,7.50
2023-05-07T23:46:06.190Z,7.53
2023-05-07T23:48:49.701Z,7.97
2023-05-07T23:51:27.631Z,7.20
2023-05-07T23:54:02.497Z,8.40
2023-05-07T23:56:36.478Z,8.27
2023-05-07T23:59:12.995Z,8.20
